createdAt,value
2017-06-03T00:02:11.114Z,7.20
2017-06-03T00:04:39.980Z,5.03
2017-06-03T00:07:09.454Z,5.93
2017-06-03T00:09:38.151Z,4.70
2017-06-03T00:12:07.413Z,5.60
2017-06-03T00:14:36.088Z,4.50
2017-06-03T00:17:04.800Z,6.60
2017-06-03T00:19:33.301Z,4.77
2017-06-03T00:22:01.813Z,5.20
2017-06-03T00:24:31.131Z,8.90
2017-06-03T00:26:59.590Z,6.03
2017-06-03T00:29:29.484Z,5.50
2017-06-03T00:31:57.969Z,5.90
2017-06-03T00:34:26.445Z,5.43
2017-06-03T00:36:55.134Z,5.53
2017-06-03T00:39:23.793Z,5.10
2017-06-03T00:41:52.696Z,5.10
2017-06-03T00:44:21.357Z,8.10
2017-06-03T00:46:49.825Z,7.13
2017-06-03T00:49:18.366Z,5.77
2017-06-03T00:51:47.004Z,7.40
2017-06-03T00:54:15.712Z,5.40
2017-06-03T00:56:44.608Z,4.23
2017-06-03T00:59:13.069Z,5.13
2017-06-03T01:01:41.554Z,4.90
2017-06-03T01:04:10.041Z,5.17
2017-06-03T01:06:38.765Z,5.00
2017-06-03T01:09:07.359Z,6.90
2017-06-03T01:11:36.098Z,5.97
2017-06-03T01:14:05.115Z,6.13
2017-06-03T01:16:33.749Z,5.77
2017-06-03T01:19:03.009Z,6.67
2017-06-03T01:21:31.756Z,6.00
2017-06-03T01:24:00.565Z,6.13
2017-06-03T01:26:29.071Z,6.10
2017-06-03T01:28:57.565Z,5.20
2017-06-03T01:31:26.082Z,5.37
2017-06-03T01:33:55.144Z,6.13
2017-06-03T01:36:23.650Z,5.80
2017-06-03T01:38:52.927Z,5.70
2017-06-03T01:41:21.453Z,5.53
2017-06-03T01:43:49.945Z,5.80
2017-06-03T01:46:18.421Z,5.10
2017-06-03T01:48:46.941Z,9.83
2017-06-03T01:51:15.453Z,8.20
2017-06-03T01:53:44.401Z,6.33
2017-06-03T01:56:12.906Z,5.47
2017-06-03T01:58:41.844Z,7.30
2017-06-03T02:01:10.470Z,4.87
2017-06-03T02:03:39.015Z,5.93
2017-06-03T02:06:07.525Z,5.40
2017-06-03T02:08:36.005Z,5.23
2017-06-03T02:11:04.663Z,6.33
2017-06-03T02:13:33.889Z,5.50
2017-06-03T02:16:03.030Z,5.10
2017-06-03T02:18:31.717Z,5.43
2017-06-03T02:21:00.405Z,6.67
2017-06-03T02:23:28.913Z,4.70
2017-06-03T02:25:58.134Z,4.83
2017-06-03T02:28:26.621Z,5.13
2017-06-03T02:30:55.093Z,5.07
2017-06-03T02:33:23.596Z,5.20
2017-06-03T02:35:52.064Z,4.93
2017-06-03T02:38:20.578Z,5.80
2017-06-03T02:40:49.491Z,5.47
2017-06-03T02:43:17.992Z,4.63
2017-06-03T02:45:47.314Z,5.27
2017-06-03T02:48:15.885Z,5.37
2017-06-03T02:50:44.687Z,6.90
2017-06-03T02:53:13.162Z,4.60
2017-06-03T02:55:41.777Z,4.47
2017-06-03T02:58:10.237Z,4.77
2017-06-03T03:02:09.082Z,5.20
2017-06-03T03:04:37.688Z,5.90
2017-06-03T03:07:06.673Z,5.43
2017-06-03T03:09:35.205Z,5.13
2017-06-03T03:12:03.844Z,5.47
2017-06-03T03:14:32.335Z,4.90
2017-06-03T03:17:00.885Z,4.30
2017-06-03T03:19:29.373Z,4.40
2017-06-03T03:21:58.041Z,6.60
2017-06-03T03:24:26.531Z,5.40
2017-06-03T03:26:55.521Z,5.33
2017-06-03T03:29:24.028Z,4.97
2017-06-03T03:31:52.484Z,4.83
2017-06-03T03:34:21.176Z,4.40
2017-06-03T03:36:49.766Z,4.43
2017-06-03T03:39:18.213Z,5.43
2017-06-03T03:41:47.417Z,4.20
2017-06-03T03:44:15.941Z,3.80
2017-06-03T03:46:44.402Z,3.93
2017-06-03T03:49:12.863Z,5.10
2017-06-03T03:51:41.666Z,4.67
2017-06-03T03:54:10.303Z,7.27
2017-06-03T03:56:38.843Z,3.97
2017-06-03T03:59:07.324Z,4.50
2017-06-03T04:01:35.854Z,5.60
2017-06-03T04:04:04.813Z,5.63
2017-06-03T04:06:33.303Z,4.67
2017-06-03T04:09:01.864Z,4.63
2017-06-03T04:11:30.389Z,7.00
2017-06-03T04:13:59.571Z,6.43
2017-06-03T04:16:29.342Z,5.00
2017-06-03T04:18:58.377Z,4.43
2017-06-03T04:21:26.893Z,4.70
2017-06-03T04:23:55.531Z,4.20
2017-06-03T04:26:24.023Z,5.90
2017-06-03T04:28:52.699Z,4.43
2017-06-03T04:31:21.261Z,4.40
2017-06-03T04:33:50.402Z,5.90
2017-06-03T04:36:18.960Z,4.93
2017-06-03T04:38:47.498Z,5.33
2017-06-03T04:41:15.997Z,3.80
2017-06-03T04:43:45.342Z,3.67
2017-06-03T04:46:14.141Z,4.33
2017-06-03T04:48:42.798Z,4.20
2017-06-03T04:51:11.590Z,5.60
2017-06-03T04:53:40.123Z,3.60
2017-06-03T04:56:08.636Z,4.37
2017-06-03T04:58:37.422Z,4.20
2017-06-03T05:01:06.653Z,3.97
2017-06-03T05:03:35.199Z,4.33
2017-06-03T05:06:04.537Z,4.83
2017-06-03T05:08:33.016Z,4.70
2017-06-03T05:11:01.505Z,6.83
2017-06-03T05:13:30.069Z,5.60
2017-06-03T05:15:58.614Z,4.40
2017-06-03T05:18:27.267Z,4.70
2017-06-03T05:20:56.377Z,4.37
2017-06-03T05:23:25.087Z,5.93
2017-06-03T05:25:53.760Z,5.97
2017-06-03T05:28:22.289Z,4.63
2017-06-03T05:30:50.996Z,5.23
2017-06-03T05:33:19.544Z,5.10
2017-06-03T05:35:48.114Z,5.10
2017-06-03T05:38:16.634Z,5.10
2017-06-03T05:40:45.237Z,4.73
2017-06-03T05:43:13.801Z,5.90
2017-06-03T05:45:42.704Z,4.77
2017-06-03T05:48:11.229Z,5.50
2017-06-03T05:50:40.444Z,6.30
2017-06-03T05:53:15.865Z,4.57
2017-06-03T05:55:44.564Z,6.40
2017-06-03T05:58:13.661Z,3.97
2017-06-03T06:00:42.152Z,5.23
2017-06-03T06:03:10.668Z,4.67
2017-06-03T06:05:39.861Z,5.20
2017-06-03T06:08:08.452Z,4.60
2017-06-03T06:10:38.103Z,5.50
2017-06-03T06:13:07.414Z,4.30
2017-06-03T06:15:35.918Z,4.80
2017-06-03T06:18:04.397Z,4.93
2017-06-03T06:20:32.891Z,4.50
2017-06-03T06:23:01.361Z,4.50
2017-06-03T06:25:30.018Z,4.07
2017-06-03T06:27:58.742Z,4.20
2017-06-03T06:30:27.381Z,4.00
2017-06-03T06:32:55.870Z,3.47
2017-06-03T06:35:24.421Z,4.40
2017-06-03T06:37:54.309Z,4.70
2017-06-03T06:40:23.573Z,5.97
2017-06-03T06:42:52.292Z,3.93
2017-06-03T06:45:20.742Z,3.50
2017-06-03T06:47:49.221Z,6.03
2017-06-03T06:50:17.946Z,6.80
2017-06-03T06:52:46.873Z,6.80
2017-06-03T06:55:15.929Z,5.83
2017-06-03T06:57:44.381Z,7.30
2017-06-03T07:00:12.863Z,5.47
2017-06-03T07:02:41.348Z,3.93
2017-06-03T07:05:09.816Z,3.63
2017-06-03T07:07:38.522Z,3.20
2017-06-03T07:10:07.209Z,4.50
2017-06-03T07:12:35.773Z,5.60
2017-06-03T07:15:04.592Z,3.53
2017-06-03T07:17:33.453Z,6.53
2017-06-03T07:20:01.937Z,3.60
2017-06-03T07:22:30.447Z,4.17
2017-06-03T07:24:58.893Z,6.20
2017-06-03T07:27:27.371Z,5.20
2017-06-03T07:29:55.951Z,3.40
2017-06-03T07:32:24.577Z,3.70
2017-06-03T07:34:53.065Z,3.77
2017-06-03T07:37:22.129Z,6.80
2017-06-03T07:39:50.722Z,6.27
2017-06-03T07:42:19.553Z,4.80
2017-06-03T07:44:48.239Z,5.07
2017-06-03T07:47:16.880Z,4.10
2017-06-03T07:49:45.370Z,4.43
2017-06-03T07:52:14.338Z,7.77
2017-06-03T07:54:42.841Z,5.90
2017-06-03T07:57:11.425Z,6.53
2017-06-03T07:59:39.990Z,4.97
2017-06-03T08:02:08.639Z,5.43
2017-06-03T08:04:37.951Z,4.63
2017-06-03T08:07:08.445Z,5.80
2017-06-03T08:09:36.897Z,6.43
2017-06-03T08:12:05.459Z,5.20
2017-06-03T08:14:35.160Z,7.20
2017-06-03T08:17:03.989Z,5.50
2017-06-03T08:19:32.496Z,5.10
2017-06-03T08:22:01.033Z,6.90
2017-06-03T08:24:30.566Z,5.83
2017-06-03T08:26:59.029Z,5.80
2017-06-03T08:29:27.508Z,6.53
2017-06-03T08:31:56.721Z,5.97
2017-06-03T08:34:25.946Z,5.40
2017-06-03T08:36:55.241Z,5.40
2017-06-03T08:39:23.708Z,6.80
2017-06-03T08:41:52.202Z,5.97
2017-06-03T08:44:21.397Z,7.37
2017-06-03T08:46:49.997Z,6.37
2017-06-03T08:49:18.797Z,5.83
2017-06-03T08:51:47.418Z,6.30
2017-06-03T08:54:17.099Z,6.17
2017-06-03T08:56:45.641Z,10.40
2017-06-03T08:59:14.474Z,7.20
2017-06-03T09:01:42.965Z,7.43
2017-06-03T09:04:11.505Z,7.73
2017-06-03T09:06:40.157Z,6.37
2017-06-03T09:09:09.355Z,8.67
2017-06-03T09:11:38.005Z,6.97
2017-06-03T09:14:06.497Z,8.90
2017-06-03T09:16:35.041Z,7.43
2017-06-03T09:19:03.515Z,7.67
2017-06-03T09:21:33.453Z,6.93
2017-06-03T09:24:01.899Z,5.87
2017-06-03T09:26:34.494Z,7.07
2017-06-03T09:29:03.110Z,5.70
2017-06-03T09:31:31.605Z,6.50
2017-06-03T09:34:00.276Z,6.30
2017-06-03T09:36:28.911Z,6.87
2017-06-03T09:38:58.418Z,7.37
2017-06-03T09:41:28.340Z,6.73
2017-06-03T09:43:57.797Z,6.73
2017-06-03T09:46:26.490Z,7.20
2017-06-03T09:48:54.973Z,9.73
2017-06-03T09:51:23.474Z,6.40
2017-06-03T09:53:51.989Z,6.17
2017-06-03T09:56:20.481Z,6.20
2017-06-03T09:58:48.981Z,7.20
2017-06-03T10:01:17.953Z,7.03
2017-06-03T10:03:48.426Z,7.10
2017-06-03T10:06:17.372Z,7.50
2017-06-03T10:08:47.460Z,7.97
2017-06-03T10:11:15.945Z,8.30
2017-06-03T10:13:44.449Z,8.57
2017-06-03T10:16:14.137Z,7.93
2017-06-03T10:18:43.598Z,10.63
2017-06-03T10:21:12.186Z,9.17
2017-06-03T10:23:40.673Z,7.33
2017-06-03T10:26:09.666Z,8.90
2017-06-03T10:28:38.229Z,8.07
2017-06-03T10:31:07.498Z,8.63
2017-06-03T10:33:37.690Z,8.97
2017-06-03T10:36:06.185Z,8.57
2017-06-03T10:38:34.666Z,8.90
2017-06-03T10:41:03.846Z,9.17
2017-06-03T10:43:32.590Z,9.23
2017-06-03T10:46:01.299Z,9.20
2017-06-03T10:48:30.154Z,8.63
2017-06-03T10:50:59.697Z,7.80
2017-06-03T10:53:28.638Z,8.50
2017-06-03T10:55:57.254Z,8.23
2017-06-03T10:58:26.449Z,8.50
2017-06-03T11:00:54.991Z,8.23
2017-06-03T11:03:23.509Z,7.87
2017-06-03T11:05:53.231Z,6.60
2017-06-03T11:08:22.473Z,8.60
2017-06-03T11:10:51.024Z,8.07
2017-06-03T11:13:19.491Z,8.13
2017-06-03T11:15:48.700Z,8.60
2017-06-03T11:18:17.417Z,8.13
2017-06-03T11:23:18.876Z,8.70
2017-06-03T11:25:47.820Z,8.50
2017-06-03T11:28:16.288Z,8.37
2017-06-03T11:30:45.017Z,8.50
2017-06-03T11:33:14.230Z,9.47
2017-06-03T11:35:43.129Z,9.90
2017-06-03T11:38:11.651Z,9.07
2017-06-03T11:40:40.709Z,9.50
2017-06-03T11:43:09.167Z,8.57
2017-06-03T11:45:37.912Z,8.13
2017-06-03T11:48:06.973Z,8.90
2017-06-03T11:50:35.894Z,9.00
2017-06-03T11:53:04.410Z,8.77
2017-06-03T11:55:32.948Z,9.40
2017-06-03T11:58:01.539Z,9.47
2017-06-03T12:00:30.023Z,10.23
2017-06-03T12:02:58.518Z,8.87
2017-06-03T12:05:27.200Z,9.53
2017-06-03T12:07:55.665Z,8.73
2017-06-03T12:10:24.172Z,10.23
2017-06-03T12:12:53.251Z,10.23
2017-06-03T12:15:21.764Z,9.70
2017-06-03T12:17:50.212Z,10.77
2017-06-03T12:20:18.695Z,9.30
2017-06-03T12:22:47.197Z,9.57
2017-06-03T12:25:15.882Z,9.63
2017-06-03T12:27:44.384Z,8.90
2017-06-03T12:30:12.895Z,8.80
2017-06-03T12:32:42.139Z,10.63
2017-06-03T12:35:11.021Z,9.50
2017-06-03T12:37:39.497Z,10.03
2017-06-03T12:40:07.997Z,8.87
2017-06-03T12:42:36.625Z,9.03
2017-06-03T12:45:05.382Z,9.30
2017-06-03T12:47:34.067Z,8.70
2017-06-03T12:50:02.601Z,10.10
2017-06-03T12:52:31.843Z,8.47
2017-06-03T12:55:00.519Z,8.10
2017-06-03T12:57:28.981Z,10.00
2017-06-03T12:59:57.674Z,9.17
2017-06-03T13:02:26.639Z,8.93
2017-06-03T13:04:59.140Z,10.77
2017-06-03T13:07:27.722Z,8.53
2017-06-03T13:09:56.643Z,9.80
2017-06-03T13:12:25.110Z,9.67
2017-06-03T13:14:53.693Z,8.77
2017-06-03T13:17:22.290Z,9.90
2017-06-03T13:19:50.947Z,8.63
2017-06-03T13:22:19.429Z,10.07
2017-06-03T13:24:48.256Z,8.30
2017-06-03T13:27:16.763Z,9.23
2017-06-03T13:29:45.289Z,11.27
2017-06-03T13:32:13.782Z,11.30
2017-06-03T13:34:42.517Z,12.07
2017-06-03T13:37:11.075Z,11.00
2017-06-03T13:39:39.557Z,12.93
2017-06-03T13:42:08.113Z,11.43
2017-06-03T13:44:36.561Z,12.37
2017-06-03T13:47:12.152Z,12.60
2017-06-03T13:49:40.895Z,11.00
2017-06-03T13:52:09.356Z,11.77
2017-06-03T13:54:38.561Z,12.63
2017-06-03T13:57:07.109Z,12.73
2017-06-03T13:59:35.890Z,13.33
2017-06-03T14:02:04.382Z,14.00
2017-06-03T14:04:32.906Z,13.10
2017-06-03T14:07:01.430Z,14.40
2017-06-03T14:09:29.917Z,14.17
2017-06-03T14:11:59.042Z,13.90
2017-06-03T14:14:28.855Z,14.93
2017-06-03T14:16:57.446Z,13.70
2017-06-03T14:19:25.954Z,14.23
2017-06-03T14:21:54.433Z,14.83
2017-06-03T14:24:22.949Z,15.37
2017-06-03T14:26:52.278Z,13.37
2017-06-03T14:29:21.089Z,15.50
2017-06-03T14:31:49.615Z,14.10
2017-06-03T14:34:19.342Z,14.00
2017-06-03T14:36:48.020Z,14.13
2017-06-03T14:39:17.259Z,14.57
2017-06-03T14:41:45.748Z,14.30
2017-06-03T14:44:14.215Z,14.47
2017-06-03T14:46:42.747Z,14.37
2017-06-03T14:49:11.685Z,14.70
2017-06-03T14:51:40.221Z,15.00
2017-06-03T14:54:08.757Z,13.87
2017-06-03T14:56:37.232Z,13.30
2017-06-03T14:59:07.389Z,14.00
2017-06-03T15:01:36.116Z,14.10
2017-06-03T15:04:06.004Z,14.73
2017-06-03T15:06:34.748Z,14.67
2017-06-03T15:09:13.158Z,12.97
2017-06-03T15:11:41.694Z,13.00
2017-06-03T15:14:10.181Z,13.23
2017-06-03T15:16:38.670Z,14.27
2017-06-03T15:19:07.959Z,12.97
2017-06-03T15:21:36.435Z,13.97
2017-06-03T15:24:05.130Z,12.23
2017-06-03T15:26:34.153Z,12.70
2017-06-03T15:29:04.182Z,13.43
2017-06-03T15:31:32.802Z,11.83
2017-06-03T15:34:01.470Z,13.17
2017-06-03T15:36:29.944Z,15.10
2017-06-03T15:38:58.445Z,13.03
2017-06-03T15:41:27.124Z,12.27
2017-06-03T15:43:55.585Z,14.17
2017-06-03T15:46:24.109Z,13.40
2017-06-03T15:48:52.904Z,14.47
2017-06-03T15:51:21.386Z,13.20
2017-06-03T15:53:50.013Z,14.43
2017-06-03T15:56:19.833Z,14.40
2017-06-03T15:58:48.578Z,13.10
2017-06-03T16:01:17.433Z,13.60
2017-06-03T16:03:47.637Z,13.60
2017-06-03T16:06:16.121Z,15.07
2017-06-03T16:08:44.606Z,13.40
2017-06-03T16:11:13.266Z,13.90
2017-06-03T16:13:42.726Z,13.70
2017-06-03T16:16:11.665Z,14.53
2017-06-03T16:18:41.333Z,13.57
2017-06-03T16:21:09.858Z,13.67
2017-06-03T16:23:38.536Z,13.67
2017-06-03T16:26:07.001Z,14.33
2017-06-03T16:28:35.498Z,13.53
2017-06-03T16:31:04.187Z,12.27
2017-06-03T16:33:32.749Z,13.10
2017-06-03T16:36:01.237Z,14.10
2017-06-03T16:38:29.831Z,13.60
2017-06-03T16:40:58.368Z,13.10
2017-06-03T16:43:27.424Z,14.10
2017-06-03T16:45:55.919Z,14.63
2017-06-03T16:48:25.165Z,12.97
2017-06-03T16:50:53.668Z,14.53
2017-06-03T16:53:22.130Z,16.33
2017-06-03T16:55:50.887Z,14.73
2017-06-03T16:58:19.364Z,15.00
2017-06-03T17:00:48.637Z,15.47
2017-06-03T17:03:17.123Z,15.07
2017-06-03T17:05:46.066Z,15.67
2017-06-03T17:08:14.514Z,13.60
2017-06-03T17:10:43.707Z,12.33
2017-06-03T17:13:12.442Z,13.70
2017-06-03T17:15:40.905Z,13.87
2017-06-03T17:18:09.469Z,14.87
2017-06-03T17:20:38.910Z,13.57
2017-06-03T17:23:07.486Z,14.67
2017-06-03T17:25:35.969Z,14.40
2017-06-03T17:28:04.653Z,15.27
2017-06-03T17:30:33.841Z,15.10
2017-06-03T17:33:03.715Z,14.77
2017-06-03T17:35:38.322Z,16.40
2017-06-03T17:38:07.135Z,14.43
2017-06-03T17:40:35.929Z,16.13
2017-06-03T17:43:04.774Z,15.13
2017-06-03T17:45:33.279Z,15.17
2017-06-03T17:48:01.778Z,15.30
2017-06-03T17:50:30.245Z,15.43
2017-06-03T17:52:58.920Z,14.90
2017-06-03T17:55:27.409Z,15.40
2017-06-03T17:57:56.305Z,16.57
2017-06-03T18:00:24.778Z,15.90
2017-06-03T18:02:53.478Z,15.23
2017-06-03T18:05:21.950Z,18.47
2017-06-03T18:07:50.415Z,16.17
2017-06-03T18:10:19.143Z,17.87
2017-06-03T18:12:47.836Z,16.70
2017-06-03T18:15:16.817Z,16.87
2017-06-03T18:17:45.293Z,16.33
2017-06-03T18:20:13.774Z,16.80
2017-06-03T18:22:43.092Z,15.70
2017-06-03T18:25:15.274Z,15.53
2017-06-03T18:27:44.406Z,15.23
2017-06-03T18:30:12.940Z,20.03
2017-06-03T18:32:41.693Z,16.33
2017-06-03T18:35:10.202Z,16.07
2017-06-03T18:37:38.685Z,14.43
2017-06-03T18:40:07.171Z,13.80
2017-06-03T18:42:35.929Z,14.60
2017-06-03T18:45:05.025Z,15.00
2017-06-03T18:47:33.836Z,13.83
2017-06-03T18:50:02.409Z,15.53
2017-06-03T18:52:31.077Z,15.50
2017-06-03T18:54:59.577Z,16.10
2017-06-03T18:57:28.704Z,12.20
2017-06-03T18:59:57.390Z,16.77
2017-06-03T19:02:26.025Z,16.23
2017-06-03T19:04:54.768Z,14.93
2017-06-03T19:07:23.241Z,12.83
2017-06-03T19:09:52.539Z,15.73
2017-06-03T19:12:21.081Z,15.30
2017-06-03T19:14:49.609Z,15.97
2017-06-03T19:17:18.481Z,15.97
2017-06-03T19:19:47.009Z,16.77
2017-06-03T19:22:15.997Z,15.10
2017-06-03T19:24:45.437Z,14.83
2017-06-03T19:27:14.177Z,15.10
2017-06-03T19:29:42.817Z,16.40
2017-06-03T19:32:11.332Z,16.10
2017-06-03T19:34:39.885Z,16.40
2017-06-03T19:37:09.114Z,16.67
2017-06-03T19:39:37.607Z,17.60
2017-06-03T19:42:06.114Z,16.77
2017-06-03T19:44:35.407Z,15.63
2017-06-03T19:47:04.085Z,19.27
2017-06-03T19:49:32.970Z,18.50
2017-06-03T19:52:01.664Z,18.53
2017-06-03T19:54:30.282Z,19.17
2017-06-03T19:56:58.865Z,17.60
2017-06-03T19:59:28.537Z,17.40
2017-06-03T20:01:57.069Z,19.17
2017-06-03T20:04:25.561Z,19.07
2017-06-03T20:06:54.175Z,19.70
2017-06-03T20:09:22.737Z,18.40
2017-06-03T20:11:51.307Z,19.77
2017-06-03T20:14:19.809Z,20.73
2017-06-03T20:16:48.271Z,20.17
2017-06-03T20:19:17.414Z,18.87
2017-06-03T20:21:46.097Z,20.23
2017-06-03T20:24:15.426Z,19.77
2017-06-03T20:26:44.115Z,18.13
2017-06-03T20:29:13.390Z,18.97
2017-06-03T20:31:41.980Z,17.33
2017-06-03T20:34:10.881Z,16.27
2017-06-03T20:36:39.643Z,19.27
2017-06-03T20:39:08.582Z,18.13
2017-06-03T20:41:39.009Z,18.80
2017-06-03T20:44:07.546Z,17.47
2017-06-03T20:46:36.254Z,16.00
2017-06-03T20:49:04.909Z,17.67
2017-06-03T20:51:33.657Z,17.40
2017-06-03T20:54:03.385Z,19.33
2017-06-03T20:56:32.446Z,15.63
2017-06-03T20:59:01.354Z,18.03
2017-06-03T21:01:30.559Z,19.30
2017-06-03T21:03:59.736Z,17.20
2017-06-03T21:06:29.040Z,19.60
2017-06-03T21:08:58.008Z,17.23
2017-06-03T21:11:26.502Z,18.70
2017-06-03T21:13:56.475Z,18.30
2017-06-03T21:16:25.058Z,17.00
2017-06-03T21:18:53.732Z,19.93
2017-06-03T21:21:22.208Z,17.70
2017-06-03T21:23:51.458Z,20.13
2017-06-03T21:26:20.349Z,16.87
2017-06-03T21:28:48.869Z,17.40
2017-06-03T21:31:18.130Z,17.30
2017-06-03T21:33:46.643Z,19.50
2017-06-03T21:36:15.873Z,19.57
2017-06-03T21:38:44.466Z,17.07
2017-06-03T21:41:12.940Z,17.43
2017-06-03T21:43:41.993Z,18.90
2017-06-03T21:46:10.528Z,17.83
2017-06-03T21:48:39.015Z,19.40
2017-06-03T21:51:07.654Z,15.83
2017-06-03T21:53:36.165Z,18.47
2017-06-03T21:56:05.439Z,18.50
2017-06-03T21:58:34.320Z,18.13
2017-06-03T22:01:02.904Z,18.83
2017-06-03T22:03:31.395Z,18.13
2017-06-03T22:05:59.959Z,21.03
2017-06-03T22:08:28.457Z,18.37
2017-06-03T22:10:57.529Z,17.50
2017-06-03T22:13:26.013Z,20.67
2017-06-03T22:15:54.686Z,20.70
2017-06-03T22:18:23.161Z,18.60
2017-06-03T22:20:51.659Z,17.23
2017-06-03T22:23:20.223Z,18.67
2017-06-03T22:25:48.838Z,18.90
2017-06-03T22:28:17.378Z,20.20
2017-06-03T22:30:45.885Z,20.03
2017-06-03T22:33:14.381Z,21.17
2017-06-03T22:35:43.173Z,20.17
2017-06-03T22:38:11.659Z,20.77
2017-06-03T22:40:40.181Z,18.93
2017-06-03T22:43:09.468Z,20.80
2017-06-03T22:45:37.957Z,21.73
2017-06-03T22:48:06.477Z,20.60
2017-06-03T22:50:35.132Z,21.07
2017-06-03T22:53:04.609Z,22.40
2017-06-03T22:55:33.146Z,22.23
2017-06-03T22:58:01.637Z,22.07
2017-06-03T23:00:34.778Z,22.90
2017-06-03T23:03:03.722Z,21.97
2017-06-03T23:05:32.214Z,22.73
2017-06-03T23:08:00.673Z,22.50
2017-06-03T23:10:29.272Z,20.60
2017-06-03T23:12:57.867Z,23.83
2017-06-03T23:15:26.341Z,22.50
2017-06-03T23:17:54.819Z,22.83
2017-06-03T23:20:23.954Z,21.33
2017-06-03T23:22:52.500Z,21.40
2017-06-03T23:25:20.971Z,23.73
2017-06-03T23:27:49.451Z,26.47
2017-06-03T23:30:18.649Z,22.73
2017-06-03T23:32:47.129Z,23.87
2017-06-03T23:35:15.739Z,23.10
2017-06-03T23:37:44.341Z,28.40
2017-06-03T23:40:12.849Z,26.50
2017-06-03T23:42:41.746Z,26.17
2017-06-03T23:45:10.242Z,29.47
2017-06-03T23:47:39.441Z,28.80
2017-06-03T23:50:07.957Z,26.50
2017-06-03T23:52:36.834Z,29.10
2017-06-03T23:55:05.469Z,30.70
2017-06-03T23:57:33.913Z,26.70
